createdAt,value
2022-09-16T00:00:32.582Z,99.90
2022-09-16T00:02:59.578Z,99.90
2022-09-16T00:05:26.599Z,99.90
2022-09-16T00:07:54.272Z,99.90
2022-09-16T00:10:21.525Z,99.90
2022-09-16T00:12:49.445Z,99.90
2022-09-16T00:15:16.937Z,99.90
2022-09-16T00:17:43.749Z,99.90
2022-09-16T00:20:10.986Z,99.90
2022-09-16T00:22:37.810Z,99.90
2022-09-16T00:25:04.632Z,99.90
2022-09-16T00:27:31.409Z,99.90
2022-09-16T00:29:58.168Z,99.90
2022-09-16T00:32:25.050Z,99.90
2022-09-16T00:34:52.011Z,99.90
2022-09-16T00:37:18.883Z,99.90
2022-09-16T00:39:47.805Z,99.90
2022-09-16T00:42:15.537Z,99.90
2022-09-16T00:45:02.154Z,99.90
2022-09-16T00:47:36.600Z,99.90
2022-09-16T00:50:29.488Z,99.90
2022-09-16T00:52:57.968Z,99.90
2022-09-16T00:55:30.622Z,99.90
2022-09-16T00:58:04.857Z,99.90
2022-09-16T01:00:32.103Z,99.90
2022-09-16T01:02:59.260Z,99.90
2022-09-16T01:05:26.659Z,99.90
2022-09-16T01:07:54.987Z,99.90
2022-09-16T01:10:24.428Z,99.90
2022-09-16T01:12:56.844Z,99.90
2022-09-16T01:15:31.930Z,99.90
2022-09-16T01:18:18.281Z,99.90
2022-09-16T01:21:02.208Z,99.90
2022-09-16T01:23:41.037Z,99.90
2022-09-16T01:26:13.607Z,99.90
2022-09-16T01:29:05.652Z,99.90
2022-09-16T01:32:17.781Z,99.90
2022-09-16T01:35:10.333Z,99.90
2022-09-16T01:38:03.113Z,99.90
2022-09-16T01:40:41.829Z,99.90
2022-09-16T01:43:42.538Z,99.90
2022-09-16T01:46:22.307Z,99.90
2022-09-16T01:49:13.353Z,99.90
2022-09-16T01:52:03.534Z,99.90
2022-09-16T01:54:39.972Z,99.90
2022-09-16T01:57:18.416Z,99.90
2022-09-16T02:00:04.056Z,99.90
2022-09-16T02:02:38.913Z,99.90
2022-09-16T02:05:13.706Z,99.90
2022-09-16T02:07:46.438Z,99.90
2022-09-16T02:10:47.532Z,99.90
2022-09-16T02:13:26.340Z,99.90
2022-09-16T02:15:55.608Z,99.90
2022-09-16T02:18:28.118Z,99.90
2022-09-16T02:21:00.362Z,99.90
2022-09-16T02:23:33.311Z,99.90
2022-09-16T02:26:02.882Z,99.90
2022-09-16T02:28:39.405Z,99.90
2022-09-16T02:31:08.319Z,99.90
2022-09-16T02:33:44.143Z,99.90
2022-09-16T02:36:14.100Z,99.90
2022-09-16T02:38:45.321Z,99.90
2022-09-16T02:41:14.833Z,99.90
2022-09-16T02:43:42.482Z,99.90
2022-09-16T02:46:56.033Z,99.90
2022-09-16T02:49:51.243Z,99.90
2022-09-16T02:52:24.022Z,99.90
2022-09-16T02:55:14.439Z,99.90
2022-09-16T02:57:42.064Z,99.90
2022-09-16T03:00:09.618Z,99.90
2022-09-16T03:02:36.728Z,99.90
2022-09-16T03:05:04.536Z,99.90
2022-09-16T03:07:31.690Z,99.90
2022-09-16T03:09:59.183Z,99.90
2022-09-16T03:12:58.243Z,99.90
2022-09-16T03:16:03.778Z,99.90
2022-09-16T03:18:51.782Z,99.90
2022-09-16T03:21:21.342Z,99.90
2022-09-16T03:23:53.334Z,99.90
2022-09-16T03:26:39.531Z,99.90
2022-09-16T03:29:26.552Z,99.90
2022-09-16T03:32:04.529Z,99.90
2022-09-16T03:34:54.284Z,99.90
2022-09-16T03:37:23.333Z,99.90
2022-09-16T03:39:57.575Z,99.90
2022-09-16T03:42:24.553Z,99.90
2022-09-16T03:44:51.407Z,99.90
2022-09-16T03:47:19.608Z,99.90
2022-09-16T03:49:46.269Z,99.90
2022-09-16T03:52:13.068Z,99.90
2022-09-16T03:54:39.865Z,99.90
2022-09-16T03:57:07.031Z,99.90
2022-09-16T03:59:33.853Z,99.90
2022-09-16T04:02:00.646Z,99.90
2022-09-16T04:04:27.357Z,99.90
2022-09-16T04:06:54.091Z,99.90
2022-09-16T04:09:20.969Z,99.90
2022-09-16T04:11:47.671Z,99.90
2022-09-16T04:14:14.805Z,99.90
2022-09-16T04:16:45.186Z,99.90
2022-09-16T04:19:13.716Z,99.90
2022-09-16T04:21:41.971Z,99.90
2022-09-16T04:24:12.941Z,99.90
2022-09-16T04:26:40.499Z,99.90
2022-09-16T04:29:07.217Z,99.90
2022-09-16T04:31:34.308Z,99.90
2022-09-16T04:34:02.294Z,99.90
2022-09-16T04:36:28.986Z,99.90
2022-09-16T04:38:55.656Z,99.90
2022-09-16T04:41:26.247Z,99.90
2022-09-16T04:43:56.099Z,99.90
2022-09-16T04:46:24.101Z,99.90
2022-09-16T04:48:51.838Z,99.90
2022-09-16T04:51:20.085Z,99.90
2022-09-16T04:53:47.319Z,99.90
2022-09-16T04:56:17.497Z,99.90
2022-09-16T04:58:52.682Z,99.90
2022-09-16T05:01:22.758Z,99.90
2022-09-16T05:03:51.699Z,99.90
2022-09-16T05:06:21.108Z,99.90
2022-09-16T05:08:52.008Z,99.90
2022-09-16T05:11:21.058Z,99.90
2022-09-16T05:13:48.046Z,99.90
2022-09-16T05:16:17.550Z,99.90
2022-09-16T05:18:46.312Z,99.90
2022-09-16T05:21:16.221Z,99.90
2022-09-16T05:23:46.858Z,99.90
2022-09-16T05:26:17.485Z,99.90
2022-09-16T05:28:44.251Z,99.90
2022-09-16T05:31:15.372Z,99.90
2022-09-16T05:33:45.700Z,99.90
2022-09-16T05:36:15.298Z,99.90
2022-09-16T05:38:54.304Z,99.90
2022-09-16T05:41:29.229Z,99.90
2022-09-16T05:44:01.323Z,99.90
2022-09-16T05:46:28.798Z,99.90
2022-09-16T05:48:56.693Z,99.90
2022-09-16T05:51:26.235Z,99.90
2022-09-16T05:53:54.176Z,99.90
2022-09-16T05:56:26.290Z,99.90
2022-09-16T05:58:54.485Z,99.90
2022-09-16T06:01:27.265Z,99.90
2022-09-16T06:03:55.091Z,99.90
2022-09-16T06:06:28.337Z,99.90
2022-09-16T06:08:57.546Z,99.90
2022-09-16T06:11:28.416Z,99.90
2022-09-16T06:13:57.557Z,99.90
2022-09-16T06:16:28.700Z,99.90
2022-09-16T06:18:57.313Z,99.90
2022-09-16T06:21:27.723Z,99.90
2022-09-16T06:23:58.170Z,99.90
2022-09-16T06:26:26.753Z,99.90
2022-09-16T06:28:55.145Z,99.90
2022-09-16T06:31:27.091Z,99.90
2022-09-16T06:33:55.811Z,99.90
2022-09-16T06:36:25.470Z,99.90
2022-09-16T06:38:52.287Z,99.90
2022-09-16T06:41:20.273Z,99.90
2022-09-16T06:43:48.958Z,99.90
2022-09-16T06:46:18.580Z,99.90
2022-09-16T06:48:48.148Z,99.90
2022-09-16T06:51:20.027Z,99.90
2022-09-16T06:54:06.362Z,99.90
2022-09-16T06:56:35.921Z,99.90
2022-09-16T06:59:03.502Z,99.90
2022-09-16T07:01:31.123Z,99.90
2022-09-16T07:03:59.246Z,99.90
2022-09-16T07:06:52.244Z,99.90
2022-09-16T07:09:16.265Z,99.90
2022-09-16T07:11:43.060Z,99.90
2022-09-16T07:14:09.690Z,99.90
2022-09-16T07:16:36.483Z,99.90
2022-09-16T07:19:04.379Z,99.90
2022-09-16T07:21:31.518Z,99.90
2022-09-16T07:24:01.820Z,99.90
2022-09-16T07:26:31.045Z,99.90
2022-09-16T07:29:00.778Z,99.90
2022-09-16T07:31:31.105Z,99.90
2022-09-16T07:34:03.517Z,99.90
2022-09-16T07:36:49.655Z,99.90
2022-09-16T07:39:17.939Z,99.90
2022-09-16T07:41:46.584Z,99.90
2022-09-16T07:44:15.559Z,99.90
2022-09-16T07:46:42.613Z,99.90
2022-09-16T07:49:12.739Z,99.90
2022-09-16T07:51:39.492Z,99.90
2022-09-16T07:54:08.814Z,99.90
2022-09-16T07:56:37.928Z,99.90
2022-09-16T07:59:07.396Z,99.90
2022-09-16T08:01:36.339Z,99.90
2022-09-16T08:04:05.567Z,99.90
2022-09-16T08:06:33.452Z,99.90
2022-09-16T08:09:15.537Z,99.90
2022-09-16T08:11:48.088Z,99.90
2022-09-16T08:14:14.853Z,99.90
2022-09-16T08:16:41.678Z,99.90
2022-09-16T08:19:09.492Z,99.90
2022-09-16T08:21:36.199Z,99.90
2022-09-16T08:24:02.936Z,99.90
2022-09-16T08:26:29.738Z,99.90
2022-09-16T08:29:12.250Z,99.90
2022-09-16T08:31:39.271Z,99.90
2022-09-16T08:34:06.081Z,99.90
2022-09-16T08:36:33.722Z,99.90
2022-09-16T08:39:00.820Z,99.70
2022-09-16T08:41:41.484Z,98.70
2022-09-16T08:44:20.166Z,97.30
2022-09-16T08:47:01.698Z,96.90
2022-09-16T08:49:31.509Z,97.50
2022-09-16T08:52:00.252Z,98.80
2022-09-16T08:54:39.940Z,99.40
2022-09-16T08:57:13.159Z,99.10
2022-09-16T08:59:44.534Z,98.00
2022-09-16T09:02:49.077Z,98.00
2022-09-16T09:05:28.787Z,95.90
2022-09-16T09:08:13.796Z,93.80
2022-09-16T09:10:51.283Z,92.20
2022-09-16T09:13:53.587Z,91.30
2022-09-16T09:16:47.690Z,88.50
2022-09-16T09:19:32.656Z,85.70
2022-09-16T09:22:16.499Z,83.30
2022-09-16T09:24:56.677Z,82.50
2022-09-16T09:27:56.944Z,79.10
2022-09-16T09:30:26.809Z,80.40
2022-09-16T09:33:27.703Z,81.80
2022-09-16T09:36:08.284Z,84.60
2022-09-16T09:38:52.500Z,87.70
2022-09-16T09:41:22.002Z,90.60
2022-09-16T09:43:58.964Z,91.80
2022-09-16T09:46:26.468Z,92.30
2022-09-16T09:49:04.264Z,91.10
2022-09-16T09:51:37.187Z,87.40
2022-09-16T09:54:25.036Z,84.40
2022-09-16T09:56:57.275Z,82.30
2022-09-16T09:59:32.781Z,81.50
2022-09-16T10:02:01.651Z,83.40
2022-09-16T10:04:36.749Z,83.60
2022-09-16T10:07:04.485Z,83.60
2022-09-16T10:09:32.443Z,81.90
2022-09-16T10:11:59.532Z,82.20
2022-09-16T10:14:36.108Z,82.50
2022-09-16T10:17:05.603Z,82.60
2022-09-16T10:19:38.912Z,83.70
2022-09-16T10:22:25.484Z,84.20
2022-09-16T10:24:56.959Z,86.80
2022-09-16T10:27:26.874Z,88.40
2022-09-16T10:30:17.048Z,90.10
2022-09-16T10:33:12.935Z,91.00
2022-09-16T10:35:43.333Z,91.70
2022-09-16T10:38:16.795Z,92.70
2022-09-16T10:41:08.275Z,93.10
2022-09-16T10:43:38.298Z,93.80
2022-09-16T10:46:06.347Z,94.20
2022-09-16T10:48:34.807Z,94.60
2022-09-16T10:51:04.931Z,94.60
2022-09-16T10:53:39.142Z,94.50
2022-09-16T10:56:17.995Z,94.10
2022-09-16T10:58:44.980Z,92.90
2022-09-16T11:01:35.225Z,92.70
2022-09-16T11:04:40.550Z,92.40
2022-09-16T11:07:19.095Z,91.50
2022-09-16T11:10:25.091Z,92.00
2022-09-16T11:13:18.547Z,91.30
2022-09-16T11:16:18.033Z,91.50
2022-09-16T11:18:55.204Z,91.00
2022-09-16T11:21:30.979Z,91.20
2022-09-16T11:24:39.324Z,91.40
2022-09-16T11:27:12.004Z,91.40
2022-09-16T11:30:10.988Z,91.40
2022-09-16T11:33:07.824Z,91.50
2022-09-16T11:36:22.560Z,91.80
2022-09-16T11:39:10.636Z,92.20
2022-09-16T11:41:49.071Z,92.40
2022-09-16T11:44:24.539Z,93.00
2022-09-16T11:46:51.259Z,92.20
2022-09-16T11:49:35.989Z,92.20
2022-09-16T11:52:25.942Z,92.40
2022-09-16T11:55:07.911Z,92.50
2022-09-16T11:57:50.840Z,91.90
2022-09-16T12:00:19.196Z,88.30
2022-09-16T12:02:57.877Z,86.00
2022-09-16T12:05:30.158Z,82.60
2022-09-16T12:08:22.933Z,80.30
2022-09-16T12:11:00.219Z,79.30
2022-09-16T12:13:34.618Z,78.20
2022-09-16T12:16:05.501Z,80.60
2022-09-16T12:18:55.702Z,84.30
2022-09-16T12:21:30.981Z,91.00
2022-09-16T12:24:15.247Z,96.70
2022-09-16T12:27:08.124Z,99.90
2022-09-16T12:30:26.304Z,99.90
2022-09-16T12:33:25.808Z,99.90
2022-09-16T12:36:00.281Z,99.90
2022-09-16T12:38:27.047Z,99.90
2022-09-16T12:41:24.779Z,99.90
2022-09-16T12:44:30.440Z,99.90
2022-09-16T12:47:35.148Z,99.90
2022-09-16T12:50:25.334Z,97.80
2022-09-16T12:53:12.347Z,93.30
2022-09-16T12:56:24.266Z,91.30
2022-09-16T12:59:16.894Z,85.70
2022-09-16T13:01:48.227Z,85.70
2022-09-16T13:04:40.260Z,86.70
2022-09-16T13:07:08.794Z,90.70
2022-09-16T13:09:38.299Z,93.30
2022-09-16T13:12:44.452Z,94.30
2022-09-16T13:15:31.682Z,95.90
2022-09-16T13:18:26.854Z,97.50
2022-09-16T13:21:00.113Z,97.00
2022-09-16T13:23:34.429Z,94.40
2022-09-16T13:26:07.371Z,91.80
2022-09-16T13:28:38.348Z,90.60
2022-09-16T13:31:14.437Z,88.10
2022-09-16T13:34:00.139Z,80.90
2022-09-16T13:36:26.950Z,78.90
2022-09-16T13:38:56.079Z,78.00
2022-09-16T13:41:49.119Z,79.00
2022-09-16T13:44:37.001Z,79.00
2022-09-16T13:47:09.743Z,80.90
2022-09-16T13:49:51.013Z,81.80
2022-09-16T13:52:32.642Z,84.60
2022-09-16T13:55:12.489Z,90.30
2022-09-16T13:57:58.383Z,92.00
2022-09-16T14:00:45.815Z,93.60
2022-09-16T14:03:24.774Z,96.50
2022-09-16T14:06:31.248Z,97.90
2022-09-16T14:09:03.344Z,94.80
2022-09-16T14:11:49.425Z,92.40
2022-09-16T14:17:19.579Z,89.60
2022-09-16T14:19:48.419Z,90.50
2022-09-16T14:22:17.631Z,91.30
2022-09-16T14:24:46.162Z,92.50
2022-09-16T14:27:34.085Z,93.60
2022-09-16T14:30:04.869Z,94.50
2022-09-16T14:32:37.689Z,95.90
2022-09-16T14:35:18.821Z,96.40
2022-09-16T14:37:48.482Z,99.90
2022-09-16T14:40:18.937Z,99.90
2022-09-16T14:42:51.870Z,99.90
2022-09-16T14:45:20.347Z,99.90
2022-09-16T14:47:52.790Z,99.90
2022-09-16T14:50:27.589Z,99.90
2022-09-16T14:53:01.601Z,99.90
2022-09-16T14:55:31.295Z,99.90
2022-09-16T14:57:59.796Z,99.90
2022-09-16T15:00:37.932Z,99.90
2022-09-16T15:03:17.468Z,99.90
2022-09-16T15:05:46.518Z,98.90
2022-09-16T15:08:28.181Z,98.20
2022-09-16T15:10:58.716Z,99.90
2022-09-16T15:13:34.803Z,99.90
2022-09-16T15:16:07.371Z,99.90
2022-09-16T15:18:37.186Z,99.90
2022-09-16T15:21:23.821Z,99.90
2022-09-16T15:23:53.407Z,99.90
2022-09-16T15:26:23.103Z,99.90
2022-09-16T15:29:20.579Z,99.90
2022-09-16T15:31:48.024Z,99.90
2022-09-16T15:34:18.585Z,99.90
2022-09-16T15:36:47.921Z,99.90
2022-09-16T15:39:35.285Z,99.90
2022-09-16T15:42:18.845Z,99.90
2022-09-16T15:44:50.514Z,99.90
2022-09-16T15:47:27.782Z,99.90
2022-09-16T15:50:15.544Z,99.90
2022-09-16T15:53:09.873Z,99.90
2022-09-16T15:55:43.032Z,99.90
2022-09-16T15:58:09.844Z,99.90
2022-09-16T16:00:58.247Z,99.90
2022-09-16T16:03:25.191Z,99.90
2022-09-16T16:05:52.946Z,99.90
2022-09-16T16:08:48.216Z,99.90
2022-09-16T16:11:18.117Z,99.90
2022-09-16T16:13:45.747Z,99.90
2022-09-16T16:16:14.877Z,99.90
2022-09-16T16:18:45.834Z,99.90
2022-09-16T16:21:16.041Z,99.90
2022-09-16T16:23:43.523Z,99.90
2022-09-16T16:26:11.224Z,99.90
2022-09-16T16:28:38.641Z,99.90
2022-09-16T16:31:16.941Z,99.90
2022-09-16T16:33:45.221Z,99.90
2022-09-16T16:36:14.409Z,99.90
2022-09-16T16:38:41.733Z,99.90
2022-09-16T16:41:09.178Z,99.90
2022-09-16T16:43:35.979Z,99.90
2022-09-16T16:46:02.923Z,99.90
2022-09-16T16:48:30.563Z,99.90
2022-09-16T16:51:03.417Z,99.90
2022-09-16T16:53:30.699Z,99.90
2022-09-16T16:56:15.176Z,99.90
2022-09-16T16:58:43.509Z,99.90
2022-09-16T17:01:16.335Z,99.90
2022-09-16T17:03:49.530Z,99.90
2022-09-16T17:06:17.134Z,99.90
2022-09-16T17:08:43.885Z,99.90
2022-09-16T17:11:16.028Z,99.90
2022-09-16T17:13:44.563Z,99.90
2022-09-16T17:16:13.371Z,99.90
2022-09-16T17:18:41.841Z,99.90
2022-09-16T17:21:14.476Z,99.90
2022-09-16T17:23:41.545Z,99.90
2022-09-16T17:26:09.230Z,99.90
2022-09-16T17:28:38.784Z,99.90
2022-09-16T17:31:33.362Z,99.90
2022-09-16T17:34:03.075Z,99.90
2022-09-16T17:36:31.060Z,99.90
2022-09-16T17:38:59.610Z,99.90
2022-09-16T17:41:27.171Z,99.90
2022-09-16T17:43:55.978Z,99.90
2022-09-16T17:46:27.109Z,99.90
2022-09-16T17:49:00.138Z,99.90
2022-09-16T17:51:27.242Z,99.90
2022-09-16T17:53:53.972Z,99.90
2022-09-16T17:56:20.873Z,99.90
2022-09-16T17:58:47.920Z,99.90
2022-09-16T18:01:20.710Z,99.90
2022-09-16T18:03:50.712Z,99.90
2022-09-16T18:06:20.774Z,99.90
2022-09-16T18:08:48.273Z,99.90
2022-09-16T18:11:16.514Z,99.90
2022-09-16T18:13:46.226Z,99.90
2022-09-16T18:16:16.259Z,99.90
2022-09-16T18:18:44.352Z,99.90
2022-09-16T18:21:15.104Z,99.90
2022-09-16T18:23:42.458Z,99.90
2022-09-16T18:26:12.640Z,99.90
2022-09-16T18:29:05.418Z,99.90
2022-09-16T18:31:28.491Z,99.90
2022-09-16T18:33:55.888Z,99.90
2022-09-16T18:36:25.686Z,99.90
2022-09-16T18:38:54.125Z,99.90
2022-09-16T18:41:23.340Z,99.90
2022-09-16T18:43:59.710Z,99.90
2022-09-16T18:46:31.983Z,99.90
2022-09-16T18:48:59.454Z,99.90
2022-09-16T18:51:29.181Z,99.90
2022-09-16T18:54:00.496Z,99.90
2022-09-16T18:56:29.291Z,99.90
2022-09-16T18:59:23.032Z,99.90
2022-09-16T19:01:55.448Z,99.90
2022-09-16T19:04:28.069Z,99.90
2022-09-16T19:06:59.135Z,99.90
2022-09-16T19:09:25.990Z,99.90
2022-09-16T19:11:53.029Z,99.90
2022-09-16T19:14:22.384Z,99.90
2022-09-16T19:16:49.179Z,99.90
2022-09-16T19:19:16.747Z,99.90
2022-09-16T19:21:43.775Z,99.90
2022-09-16T19:24:28.374Z,99.90
2022-09-16T19:26:55.696Z,99.90
2022-09-16T19:29:22.595Z,99.90
2022-09-16T19:31:52.020Z,99.90
2022-09-16T19:34:19.481Z,99.90
2022-09-16T19:36:46.586Z,99.90
2022-09-16T19:39:13.795Z,99.90
2022-09-16T19:41:41.541Z,99.90
2022-09-16T19:44:13.082Z,99.90
2022-09-16T19:46:42.548Z,99.90
2022-09-16T19:49:14.217Z,99.90
2022-09-16T19:51:40.964Z,99.90
2022-09-16T19:54:07.914Z,99.90
2022-09-16T19:56:34.626Z,99.90
2022-09-16T19:59:01.899Z,99.90
2022-09-16T20:01:31.811Z,99.90
2022-09-16T20:03:59.609Z,99.90
2022-09-16T20:06:29.103Z,99.90
2022-09-16T20:09:01.081Z,99.90
2022-09-16T20:11:31.933Z,99.90
2022-09-16T20:14:02.184Z,99.90
2022-09-16T20:16:38.187Z,99.90
2022-09-16T20:19:09.887Z,99.90
2022-09-16T20:21:37.845Z,99.90
2022-09-16T20:24:06.529Z,99.90
2022-09-16T20:26:34.462Z,99.90
2022-09-16T20:29:01.615Z,99.90
2022-09-16T20:31:31.653Z,99.90
2022-09-16T20:33:58.814Z,99.90
2022-09-16T20:36:27.508Z,99.90
2022-09-16T20:38:54.442Z,99.90
2022-09-16T20:41:26.518Z,99.90
2022-09-16T20:43:53.336Z,99.90
2022-09-16T20:46:25.804Z,99.90
2022-09-16T20:48:56.695Z,99.90
2022-09-16T20:51:28.661Z,99.90
2022-09-16T20:53:58.391Z,99.90
2022-09-16T20:56:26.855Z,99.90
2022-09-16T20:58:53.745Z,99.90
2022-09-16T21:01:26.706Z,99.90
2022-09-16T21:03:59.045Z,99.90
2022-09-16T21:06:27.151Z,99.90
2022-09-16T21:08:55.554Z,99.90
2022-09-16T21:11:23.125Z,99.90
2022-09-16T21:13:58.316Z,99.90
2022-09-16T21:16:27.042Z,99.90
2022-09-16T21:18:58.372Z,99.90
2022-09-16T21:21:27.935Z,99.90
2022-09-16T21:23:56.480Z,99.90
2022-09-16T21:26:34.608Z,99.90
2022-09-16T21:29:13.538Z,99.90
2022-09-16T21:31:41.958Z,99.90
2022-09-16T21:34:17.345Z,99.90
2022-09-16T21:36:45.151Z,99.90
2022-09-16T21:39:16.185Z,99.90
2022-09-16T21:41:44.283Z,99.90
2022-09-16T21:44:11.940Z,99.90
2022-09-16T21:46:42.493Z,99.90
2022-09-16T21:49:25.817Z,99.90
2022-09-16T21:51:54.828Z,99.90
2022-09-16T21:54:22.354Z,99.90
2022-09-16T21:56:50.047Z,99.90
2022-09-16T21:59:19.503Z,99.90
2022-09-16T22:01:46.393Z,99.90
2022-09-16T22:04:19.188Z,99.90
2022-09-16T22:06:45.987Z,99.90
2022-09-16T22:09:12.859Z,99.90
2022-09-16T22:11:41.312Z,99.90
2022-09-16T22:14:08.756Z,99.90
2022-09-16T22:16:37.765Z,99.90
2022-09-16T22:19:11.373Z,99.90
2022-09-16T22:21:41.042Z,99.90
2022-09-16T22:24:08.783Z,99.90
2022-09-16T22:26:36.474Z,99.90
2022-09-16T22:29:04.029Z,99.90
2022-09-16T22:31:32.366Z,99.90
2022-09-16T22:34:01.265Z,99.90
2022-09-16T22:36:31.192Z,99.90
2022-09-16T22:39:01.432Z,99.90
2022-09-16T22:41:29.108Z,99.90
2022-09-16T22:43:56.500Z,99.90
2022-09-16T22:46:33.119Z,99.90
2022-09-16T22:49:00.267Z,99.90
2022-09-16T22:51:27.752Z,99.90
2022-09-16T22:53:55.241Z,99.90
2022-09-16T22:56:25.019Z,99.90
2022-09-16T22:58:53.737Z,99.90
2022-09-16T23:01:24.293Z,99.90
2022-09-16T23:03:56.190Z,99.90
2022-09-16T23:06:26.669Z,99.90
2022-09-16T23:08:53.833Z,99.90
2022-09-16T23:11:26.714Z,99.90
2022-09-16T23:13:54.075Z,99.90
2022-09-16T23:16:27.010Z,99.90
2022-09-16T23:18:55.664Z,99.90
2022-09-16T23:21:23.528Z,99.90
2022-09-16T23:23:55.660Z,99.90
2022-09-16T23:26:24.440Z,99.90
2022-09-16T23:28:53.586Z,99.90
2022-09-16T23:31:22.811Z,99.90
2022-09-16T23:33:49.543Z,99.90
2022-09-16T23:36:18.028Z,99.90
2022-09-16T23:38:45.850Z,99.90
2022-09-16T23:41:19.803Z,99.90
2022-09-16T23:43:48.487Z,99.90
2022-09-16T23:46:17.728Z,99.90
2022-09-16T23:48:45.243Z,99.90
2022-09-16T23:51:12.946Z,99.90
2022-09-16T23:53:42.410Z,99.90
2022-09-16T23:56:11.136Z,99.90
2022-09-16T23:58:39.002Z,99.90
